sensor_id;sensor_type;location;lat;lon;timestamp;pressure;altitude;pressure_sealevel;temperature;humidity
53715;BME280;39608;55.630;37.864;2023-05-08T00:01:59;100904.38;;;6.53;39.76
53715;BME280;39608;55.630;37.864;2023-05-08T00:07:01;100912.59;;;6.46;40.53
53715;BME280;39608;55.630;37.864;2023-05-08T00:12:04;100911.44;;;6.42;40.31
53715;BME280;39608;55.630;37.864;2023-05-08T00:17:08;100912.72;;;6.40;40.67
53715;BME280;39608;55.630;37.864;2023-05-08T00:22:10;100911.53;;;6.36;40.93
53715;BME280;39608;55.630;37.864;2023-05-08T00:27:14;100925.59;;;6.38;41.60
53715;BME280;39608;55.630;37.864;2023-05-08T00:32:16;100927.56;;;6.30;40.77
53715;BME280;39608;55.630;37.864;2023-05-08T00:37:18;100932.16;;;6.30;41.23
53715;BME280;39608;55.630;37.864;2023-05-08T00:42:21;100936.13;;;6.27;41.58
53715;BME280;39608;55.630;37.864;2023-05-08T00:47:24;100928.38;;;6.19;41.37
53715;BME280;39608;55.630;37.864;2023-05-08T00:52:27;100935.97;;;6.22;42.25
53715;BME280;39608;55.630;37.864;2023-05-08T00:57:32;100930.97;;;6.26;41.47
53715;BME280;39608;55.630;37.864;2023-05-08T01:02:35;100944.06;;;6.22;41.58
53715;BME280;39608;55.630;37.864;2023-05-08T01:07:37;100935.88;;;6.17;41.54
53715;BME280;39608;55.630;37.864;2023-05-08T01:12:56;100943.59;;;6.25;40.73
53715;BME280;39608;55.630;37.864;2023-05-08T01:18:06;100935.75;;;6.24;41.60
53715;BME280;39608;55.630;37.864;2023-05-08T01:23:47;100915.69;;;6.08;41.43
53715;BME280;39608;55.630;37.864;2023-05-08T01:29:13;100941.38;;;6.22;42.38
53715;BME280;39608;55.630;37.864;2023-05-08T01:34:25;100957.03;;;6.13;42.73
53715;BME280;39608;55.630;37.864;2023-05-08T01:39:33;100961.56;;;6.01;43.84
53715;BME280;39608;55.630;37.864;2023-05-08T01:44:44;100942.00;;;5.75;44.22
53715;BME280;39608;55.630;37.864;2023-05-08T01:49:56;100948.13;;;5.82;44.62
53715;BME280;39608;55.630;37.864;2023-05-08T01:55:03;100958.66;;;5.84;44.18
53715;BME280;39608;55.630;37.864;2023-05-08T02:00:07;100952.06;;;5.80;44.43
53715;BME280;39608;55.630;37.864;2023-05-08T02:05:11;100965.06;;;5.83;44.65
53715;BME280;39608;55.630;37.864;2023-05-08T02:10:17;100959.13;;;5.81;44.51
53715;BME280;39608;55.630;37.864;2023-05-08T02:15:20;100965.47;;;5.87;44.20
53715;BME280;39608;55.630;37.864;2023-05-08T02:20:25;100979.66;;;5.94;44.78
53715;BME280;39608;55.630;37.864;2023-05-08T02:25:30;100958.19;;;5.87;45.16
53715;BME280;39608;55.630;37.864;2023-05-08T02:30:32;100986.75;;;6.07;44.80
53715;BME280;39608;55.630;37.864;2023-05-08T02:35:37;101000.06;;;6.20;45.61
53715;BME280;39608;55.630;37.864;2023-05-08T02:40:44;100995.00;;;6.24;44.59
53715;BME280;39608;55.630;37.864;2023-05-08T02:45:58;100994.19;;;6.23;43.65
53715;BME280;39608;55.630;37.864;2023-05-08T02:51:12;101004.50;;;6.26;43.67
53715;BME280;39608;55.630;37.864;2023-05-08T02:56:29;101005.34;;;6.27;43.38
53715;BME280;39608;55.630;37.864;2023-05-08T03:01:39;101001.59;;;6.28;43.21
53715;BME280;39608;55.630;37.864;2023-05-08T03:06:45;100997.81;;;6.17;42.73
53715;BME280;39608;55.630;37.864;2023-05-08T03:11:49;101017.41;;;6.24;42.93
53715;BME280;39608;55.630;37.864;2023-05-08T03:16:54;101012.47;;;6.21;42.92
53715;BME280;39608;55.630;37.864;2023-05-08T03:21:59;101017.16;;;6.26;42.65
53715;BME280;39608;55.630;37.864;2023-05-08T03:27:03;101022.09;;;6.29;42.50
53715;BME280;39608;55.630;37.864;2023-05-08T03:32:07;101028.44;;;6.34;42.86
53715;BME280;39608;55.630;37.864;2023-05-08T03:37:10;101036.28;;;6.36;42.60
53715;BME280;39608;55.630;37.864;2023-05-08T03:42:12;101033.81;;;6.34;42.63
53715;BME280;39608;55.630;37.864;2023-05-08T03:47:21;101033.00;;;6.34;42.95
53715;BME280;39608;55.630;37.864;2023-05-08T03:52:25;101043.59;;;6.47;42.23
53715;BME280;39608;55.630;37.864;2023-05-08T03:57:30;101036.91;;;6.50;42.73
53715;BME280;39608;55.630;37.864;2023-05-08T04:02:40;101027.56;;;6.53;42.88
53715;BME280;39608;55.630;37.864;2023-05-08T04:07:51;101039.91;;;6.72;42.84
53715;BME280;39608;55.630;37.864;2023-05-08T04:13:00;101055.44;;;6.89;42.20
53715;BME280;39608;55.630;37.864;2023-05-08T04:18:07;101054.50;;;7.07;42.20
53715;BME280;39608;55.630;37.864;2023-05-08T04:23:13;101051.94;;;7.24;41.92
53715;BME280;39608;55.630;37.864;2023-05-08T04:28:16;101051.13;;;7.35;41.96
53715;BME280;39608;55.630;37.864;2023-05-08T04:33:19;101054.13;;;7.62;41.27
53715;BME280;39608;55.630;37.864;2023-05-08T04:38:22;101056.34;;;7.89;41.01
53715;BME280;39608;55.630;37.864;2023-05-08T04:43:24;101057.09;;;8.01;41.06
53715;BME280;39608;55.630;37.864;2023-05-08T04:48:26;101056.59;;;8.16;41.00
53715;BME280;39608;55.630;37.864;2023-05-08T04:53:32;101061.56;;;8.36;40.75
53715;BME280;39608;55.630;37.864;2023-05-08T04:58:34;101059.75;;;8.54;40.05
53715;BME280;39608;55.630;37.864;2023-05-08T05:03:36;101061.28;;;9.13;39.68
53715;BME280;39608;55.630;37.864;2023-05-08T05:08:39;101067.69;;;10.51;38.29
53715;BME280;39608;55.630;37.864;2023-05-08T05:13:41;101083.16;;;11.96;37.27
53715;BME280;39608;55.630;37.864;2023-05-08T05:18:43;101087.47;;;12.71;35.95
53715;BME280;39608;55.630;37.864;2023-05-08T05:23:47;101073.59;;;12.93;35.46
53715;BME280;39608;55.630;37.864;2023-05-08T05:28:49;101081.75;;;13.24;34.95
53715;BME280;39608;55.630;37.864;2023-05-08T05:33:51;101092.91;;;13.43;32.87
53715;BME280;39608;55.630;37.864;2023-05-08T05:38:55;101093.13;;;13.82;33.06
53715;BME280;39608;55.630;37.864;2023-05-08T05:43:57;101090.69;;;14.36;32.11
53715;BME280;39608;55.630;37.864;2023-05-08T05:48:59;101090.91;;;14.95;30.54
53715;BME280;39608;55.630;37.864;2023-05-08T05:54:02;101080.00;;;14.89;30.09
53715;BME280;39608;55.630;37.864;2023-05-08T05:59:04;101079.78;;;14.86;29.54
53715;BME280;39608;55.630;37.864;2023-05-08T06:04:07;101089.09;;;14.30;29.31
53715;BME280;39608;55.630;37.864;2023-05-08T06:09:10;101083.97;;;14.18;29.45
53715;BME280;39608;55.630;37.864;2023-05-08T06:14:12;101085.91;;;14.17;28.97
53715;BME280;39608;55.630;37.864;2023-05-08T06:19:14;101089.16;;;14.19;29.74
53715;BME280;39608;55.630;37.864;2023-05-08T06:24:18;101095.31;;;14.85;28.89
53715;BME280;39608;55.630;37.864;2023-05-08T06:29:20;101084.75;;;15.08;27.67
53715;BME280;39608;55.630;37.864;2023-05-08T06:34:22;101086.31;;;15.19;27.48
53715;BME280;39608;55.630;37.864;2023-05-08T06:39:25;101083.81;;;15.52;27.58
53715;BME280;39608;55.630;37.864;2023-05-08T06:44:27;101089.72;;;16.32;27.23
53715;BME280;39608;55.630;37.864;2023-05-08T06:49:30;101082.28;;;16.57;26.15
53715;BME280;39608;55.630;37.864;2023-05-08T06:54:33;101077.75;;;16.47;25.76
53715;BME280;39608;55.630;37.864;2023-05-08T06:59:35;101077.03;;;15.98;26.27
53715;BME280;39608;55.630;37.864;2023-05-08T07:04:38;101079.34;;;15.62;26.47
53715;BME280;39608;55.630;37.864;2023-05-08T07:09:41;101076.28;;;14.25;27.70
53715;BME280;39608;55.630;37.864;2023-05-08T07:14:43;101069.75;;;13.56;27.93
53715;BME280;39608;55.630;37.864;2023-05-08T07:19:49;101067.59;;;13.37;28.54
53715;BME280;39608;55.630;37.864;2023-05-08T07:24:53;101063.81;;;14.64;27.09
53715;BME280;39608;55.630;37.864;2023-05-08T07:29:55;101065.25;;;14.91;26.40
53715;BME280;39608;55.630;37.864;2023-05-08T07:34:58;101053.41;;;15.00;26.36
53715;BME280;39608;55.630;37.864;2023-05-08T07:40:01;101058.91;;;14.61;26.38
53715;BME280;39608;55.630;37.864;2023-05-08T07:45:06;101049.59;;;13.51;27.58
53715;BME280;39608;55.630;37.864;2023-05-08T07:50:09;101050.72;;;12.99;27.68
53715;BME280;39608;55.630;37.864;2023-05-08T07:55:12;101055.06;;;12.95;28.29
53715;BME280;39608;55.630;37.864;2023-05-08T08:00:15;101054.81;;;13.07;28.34
53715;BME280;39608;55.630;37.864;2023-05-08T08:05:18;101065.66;;;12.76;27.86
53715;BME280;39608;55.630;37.864;2023-05-08T08:10:21;101065.94;;;12.59;28.01
53715;BME280;39608;55.630;37.864;2023-05-08T08:15:23;101051.69;;;12.21;28.47
53715;BME280;39608;55.630;37.864;2023-05-08T08:20:25;101049.53;;;12.18;28.35
53715;BME280;39608;55.630;37.864;2023-05-08T08:25:29;101038.69;;;12.33;28.35
53715;BME280;39608;55.630;37.864;2023-05-08T08:30:31;101049.03;;;12.36;28.36
53715;BME280;39608;55.630;37.864;2023-05-08T08:35:33;101043.34;;;12.84;27.88
53715;BME280;39608;55.630;37.864;2023-05-08T08:40:39;101042.38;;;14.81;26.94
53715;BME280;39608;55.630;37.864;2023-05-08T08:45:41;101032.34;;;15.84;24.98
53715;BME280;39608;55.630;37.864;2023-05-08T08:50:46;101034.28;;;15.54;25.41
53715;BME280;39608;55.630;37.864;2023-05-08T08:55:54;101000.34;;;16.22;24.41
53715;BME280;39608;55.630;37.864;2023-05-08T09:00:59;101023.19;;;16.13;23.71
53715;BME280;39608;55.630;37.864;2023-05-08T09:06:04;101032.13;;;14.63;24.86
53715;BME280;39608;55.630;37.864;2023-05-08T09:11:08;101032.88;;;13.74;25.83
53715;BME280;39608;55.630;37.864;2023-05-08T09:16:10;101028.88;;;13.25;26.92
53715;BME280;39608;55.630;37.864;2023-05-08T09:21:12;101029.75;;;13.10;27.13
53715;BME280;39608;55.630;37.864;2023-05-08T09:26:27;101016.69;;;13.07;26.93
53715;BME280;39608;55.630;37.864;2023-05-08T09:31:34;101028.34;;;13.23;27.19
53715;BME280;39608;55.630;37.864;2023-05-08T09:36:36;101011.69;;;13.50;26.33
53715;BME280;39608;55.630;37.864;2023-05-08T09:41:55;101028.22;;;13.79;26.56
53715;BME280;39608;55.630;37.864;2023-05-08T09:47:09;101005.69;;;14.13;25.79
53715;BME280;39608;55.630;37.864;2023-05-08T09:52:14;100987.97;;;14.11;25.91
53715;BME280;39608;55.630;37.864;2023-05-08T09:57:18;101012.53;;;14.50;25.78
53715;BME280;39608;55.630;37.864;2023-05-08T10:02:20;100982.22;;;14.52;25.68
53715;BME280;39608;55.630;37.864;2023-05-08T10:07:29;101002.88;;;14.68;25.62
53715;BME280;39608;55.630;37.864;2023-05-08T10:12:33;101003.28;;;14.46;25.78
53715;BME280;39608;55.630;37.864;2023-05-08T10:17:43;101012.03;;;14.43;24.71
53715;BME280;39608;55.630;37.864;2023-05-08T10:22:47;101011.66;;;14.15;25.84
53715;BME280;39608;55.630;37.864;2023-05-08T10:27:54;101005.28;;;14.35;25.57
53715;BME280;39608;55.630;37.864;2023-05-08T10:33:02;100998.38;;;14.48;24.45
53715;BME280;39608;55.630;37.864;2023-05-08T10:38:08;100958.25;;;14.09;24.74
53715;BME280;39608;55.630;37.864;2023-05-08T10:43:11;100993.63;;;14.25;25.53
53715;BME280;39608;55.630;37.864;2023-05-08T10:48:20;100984.25;;;14.76;24.70
53715;BME280;39608;55.630;37.864;2023-05-08T10:53:43;100987.41;;;15.42;24.48
53715;BME280;39608;55.630;37.864;2023-05-08T10:58:54;100971.81;;;15.66;24.11
53715;BME280;39608;55.630;37.864;2023-05-08T11:03:57;100976.47;;;15.66;23.44
53715;BME280;39608;55.630;37.864;2023-05-08T11:08:59;100974.75;;;15.27;23.32
53715;BME280;39608;55.630;37.864;2023-05-08T11:14:14;100969.25;;;14.73;24.58
53715;BME280;39608;55.630;37.864;2023-05-08T11:19:17;100978.78;;;14.41;24.59
53715;BME280;39608;55.630;37.864;2023-05-08T11:24:33;100977.31;;;14.54;24.85
53715;BME280;39608;55.630;37.864;2023-05-08T11:29:36;100978.22;;;14.39;25.02
53715;BME280;39608;55.630;37.864;2023-05-08T11:34:46;100972.72;;;14.49;25.06
53715;BME280;39608;55.630;37.864;2023-05-08T11:39:49;100974.91;;;14.08;25.16
53715;BME280;39608;55.630;37.864;2023-05-08T11:45:02;100968.84;;;13.61;25.72
53715;BME280;39608;55.630;37.864;2023-05-08T11:50:07;100970.34;;;13.22;25.97
53715;BME280;39608;55.630;37.864;2023-05-08T11:55:11;100967.66;;;12.96;26.16
53715;BME280;39608;55.630;37.864;2023-05-08T12:00:17;100971.19;;;13.07;26.46
53715;BME280;39608;55.630;37.864;2023-05-08T12:05:25;100973.03;;;13.27;26.02
53715;BME280;39608;55.630;37.864;2023-05-08T12:10:27;100978.47;;;13.27;25.81
53715;BME280;39608;55.630;37.864;2023-05-08T12:15:32;100958.50;;;13.63;25.67
53715;BME280;39608;55.630;37.864;2023-05-08T12:20:34;100973.94;;;14.28;24.67
53715;BME280;39608;55.630;37.864;2023-05-08T12:25:38;100958.25;;;14.44;24.87
53715;BME280;39608;55.630;37.864;2023-05-08T12:30:41;100966.63;;;14.58;24.83
53715;BME280;39608;55.630;37.864;2023-05-08T12:35:43;100933.41;;;14.11;25.19
53715;BME280;39608;55.630;37.864;2023-05-08T12:40:46;100963.63;;;14.19;25.06
53715;BME280;39608;55.630;37.864;2023-05-08T12:45:53;100958.25;;;14.09;25.75
53715;BME280;39608;55.630;37.864;2023-05-08T12:51:01;100949.91;;;13.90;25.20
53715;BME280;39608;55.630;37.864;2023-05-08T12:56:04;100949.69;;;13.76;25.50
53715;BME280;39608;55.630;37.864;2023-05-08T13:01:09;100931.53;;;13.56;25.37
53715;BME280;39608;55.630;37.864;2023-05-08T13:06:19;100948.91;;;13.76;25.74
53715;BME280;39608;55.630;37.864;2023-05-08T13:11:29;100940.00;;;13.55;25.68
53715;BME280;39608;55.630;37.864;2023-05-08T13:16:42;100931.09;;;13.23;25.89
53715;BME280;39608;55.630;37.864;2023-05-08T13:21:44;100935.72;;;13.17;26.21
53715;BME280;39608;55.630;37.864;2023-05-08T13:26:47;100940.34;;;13.32;25.90
53715;BME280;39608;55.630;37.864;2023-05-08T13:31:50;100936.78;;;13.47;25.64
53715;BME280;39608;55.630;37.864;2023-05-08T13:36:53;100927.53;;;13.43;25.50
53715;BME280;39608;55.630;37.864;2023-05-08T13:41:55;100921.69;;;13.65;25.17
53715;BME280;39608;55.630;37.864;2023-05-08T13:46:58;100932.66;;;14.00;24.97
53715;BME280;39608;55.630;37.864;2023-05-08T13:52:00;100914.81;;;13.78;25.18
53715;BME280;39608;55.630;37.864;2023-05-08T13:57:03;100929.59;;;13.62;25.24
53715;BME280;39608;55.630;37.864;2023-05-08T14:02:06;100930.25;;;13.43;25.47
53715;BME280;39608;55.630;37.864;2023-05-08T14:07:09;100938.47;;;13.23;25.52
53715;BME280;39608;55.630;37.864;2023-05-08T14:12:11;100925.69;;;13.13;25.68
53715;BME280;39608;55.630;37.864;2023-05-08T14:17:14;100926.53;;;13.03;25.80
53715;BME280;39608;55.630;37.864;2023-05-08T14:22:17;100909.69;;;12.80;25.84
53715;BME280;39608;55.630;37.864;2023-05-08T14:27:21;100905.38;;;12.69;25.96
53715;BME280;39608;55.630;37.864;2023-05-08T14:32:25;100932.25;;;12.91;26.05
53715;BME280;39608;55.630;37.864;2023-05-08T14:37:27;100912.94;;;12.88;26.21
53715;BME280;39608;55.630;37.864;2023-05-08T14:42:29;100910.75;;;12.90;26.25
53715;BME280;39608;55.630;37.864;2023-05-08T14:47:34;100909.69;;;12.70;26.34
53715;BME280;39608;55.630;37.864;2023-05-08T14:52:36;100913.81;;;12.62;26.62
53715;BME280;39608;55.630;37.864;2023-05-08T14:57:38;100920.31;;;12.56;26.56
53715;BME280;39608;55.630;37.864;2023-05-08T15:02:42;100912.16;;;12.66;26.71
53715;BME280;39608;55.630;37.864;2023-05-08T15:07:44;100913.50;;;12.74;26.58
53715;BME280;39608;55.630;37.864;2023-05-08T15:12:46;100910.78;;;12.74;26.12
53715;BME280;39608;55.630;37.864;2023-05-08T15:17:50;100916.50;;;12.83;26.07
53715;BME280;39608;55.630;37.864;2023-05-08T15:22:52;100902.34;;;12.81;26.03
53715;BME280;39608;55.630;37.864;2023-05-08T15:27:54;100896.56;;;12.98;26.12
53715;BME280;39608;55.630;37.864;2023-05-08T15:32:58;100908.25;;;13.04;25.99
53715;BME280;39608;55.630;37.864;2023-05-08T15:38:00;100917.22;;;13.09;25.83
53715;BME280;39608;55.630;37.864;2023-05-08T15:43:06;100895.72;;;13.18;25.84
53715;BME280;39608;55.630;37.864;2023-05-08T15:48:09;100906.03;;;13.21;25.68
53715;BME280;39608;55.630;37.864;2023-05-08T15:53:11;100910.69;;;13.10;25.72
53715;BME280;39608;55.630;37.864;2023-05-08T15:58:13;100908.56;;;12.97;26.07
53715;BME280;39608;55.630;37.864;2023-05-08T16:03:17;100877.88;;;12.60;26.11
53715;BME280;39608;55.630;37.864;2023-05-08T16:08:19;100906.75;;;12.51;25.73
53715;BME280;39608;55.630;37.864;2023-05-08T16:13:21;100890.69;;;12.34;26.01
53715;BME280;39608;55.630;37.864;2023-05-08T16:18:24;100903.19;;;12.35;26.29
53715;BME280;39608;55.630;37.864;2023-05-08T16:23:26;100916.78;;;12.35;26.42
53715;BME280;39608;55.630;37.864;2023-05-08T16:28:29;100914.63;;;12.37;26.39
53715;BME280;39608;55.630;37.864;2023-05-08T16:33:32;100898.84;;;12.44;26.44
53715;BME280;39608;55.630;37.864;2023-05-08T16:38:34;100888.50;;;12.36;26.18
53715;BME280;39608;55.630;37.864;2023-05-08T16:43:36;100896.13;;;12.39;26.45
53715;BME280;39608;55.630;37.864;2023-05-08T16:48:40;100910.53;;;12.45;26.29
53715;BME280;39608;55.630;37.864;2023-05-08T16:53:42;100914.34;;;12.39;26.28
53715;BME280;39608;55.630;37.864;2023-05-08T16:58:44;100919.50;;;12.35;26.65
53715;BME280;39608;55.630;37.864;2023-05-08T17:03:47;100908.38;;;12.31;26.72
53715;BME280;39608;55.630;37.864;2023-05-08T17:08:49;100918.44;;;12.26;26.78
53715;BME280;39608;55.630;37.864;2023-05-08T17:13:51;100920.63;;;12.19;27.09
53715;BME280;39608;55.630;37.864;2023-05-08T17:18:55;100931.75;;;12.22;26.92
53715;BME280;39608;55.630;37.864;2023-05-08T17:23:59;100934.72;;;12.15;26.83
53715;BME280;39608;55.630;37.864;2023-05-08T17:29:01;100930.13;;;12.01;26.87
53715;BME280;39608;55.630;37.864;2023-05-08T17:34:05;100933.91;;;12.00;27.45
53715;BME280;39608;55.630;37.864;2023-05-08T17:39:07;100946.63;;;11.89;27.23
53715;BME280;39608;55.630;37.864;2023-05-08T17:44:09;100949.84;;;11.80;27.73
53715;BME280;39608;55.630;37.864;2023-05-08T17:49:13;100929.69;;;11.61;28.31
53715;BME280;39608;55.630;37.864;2023-05-08T17:54:16;100963.94;;;11.62;28.34
53715;BME280;39608;55.630;37.864;2023-05-08T17:59:19;100959.81;;;11.49;28.70
53715;BME280;39608;55.630;37.864;2023-05-08T18:04:22;100965.19;;;11.34;29.06
53715;BME280;39608;55.630;37.864;2023-05-08T18:09:24;100965.78;;;11.46;29.22
53715;BME280;39608;55.630;37.864;2023-05-08T18:14:28;100959.56;;;11.56;29.08
53715;BME280;39608;55.630;37.864;2023-05-08T18:19:32;100961.94;;;11.37;28.78
53715;BME280;39608;55.630;37.864;2023-05-08T18:24:34;100966.47;;;11.26;29.53
53715;BME280;39608;55.630;37.864;2023-05-08T18:29:36;100975.66;;;11.09;29.89
53715;BME280;39608;55.630;37.864;2023-05-08T18:34:40;100963.63;;;11.00;29.65
53715;BME280;39608;55.630;37.864;2023-05-08T18:39:42;100975.22;;;10.90;30.76
53715;BME280;39608;55.630;37.864;2023-05-08T18:44:44;100965.59;;;10.72;31.07
53715;BME280;39608;55.630;37.864;2023-05-08T18:49:49;100963.09;;;10.60;31.56
53715;BME280;39608;55.630;37.864;2023-05-08T18:54:51;100967.84;;;10.48;32.12
53715;BME280;39608;55.630;37.864;2023-05-08T18:59:53;100981.16;;;10.50;32.54
53715;BME280;39608;55.630;37.864;2023-05-08T19:04:57;100997.94;;;10.47;32.76
53715;BME280;39608;55.630;37.864;2023-05-08T19:10:00;100986.09;;;10.31;32.83
53715;BME280;39608;55.630;37.864;2023-05-08T19:15:03;100984.97;;;10.26;33.04
53715;BME280;39608;55.630;37.864;2023-05-08T19:20:08;100989.53;;;10.21;33.75
53715;BME280;39608;55.630;37.864;2023-05-08T19:25:10;100985.00;;;10.04;33.80
53715;BME280;39608;55.630;37.864;2023-05-08T19:30:13;100990.66;;;9.98;33.88
53715;BME280;39608;55.630;37.864;2023-05-08T19:35:17;100974.06;;;9.94;34.67
53715;BME280;39608;55.630;37.864;2023-05-08T19:40:20;100996.44;;;10.06;33.90
53715;BME280;39608;55.630;37.864;2023-05-08T19:45:23;100969.97;;;9.91;34.73
53715;BME280;39608;55.630;37.864;2023-05-08T19:50:26;100991.47;;;9.98;35.13
53715;BME280;39608;55.630;37.864;2023-05-08T19:55:29;101002.56;;;9.97;35.18
53715;BME280;39608;55.630;37.864;2023-05-08T20:00:31;100973.56;;;9.75;34.34
53715;BME280;39608;55.630;37.864;2023-05-08T20:05:34;100965.69;;;9.73;36.13
53715;BME280;39608;55.630;37.864;2023-05-08T20:10:37;100997.03;;;9.86;35.43
53715;BME280;39608;55.630;37.864;2023-05-08T20:15:39;100963.06;;;9.56;35.94
53715;BME280;39608;55.630;37.864;2023-05-08T20:20:43;101004.03;;;9.82;36.29
53715;BME280;39608;55.630;37.864;2023-05-08T20:25:45;100995.03;;;9.76;36.74
53715;BME280;39608;55.630;37.864;2023-05-08T20:30:48;100964.91;;;9.51;37.29
53715;BME280;39608;55.630;37.864;2023-05-08T20:35:52;101004.66;;;9.67;37.71
53715;BME280;39608;55.630;37.864;2023-05-08T20:40:55;101002.94;;;9.61;37.52
53715;BME280;39608;55.630;37.864;2023-05-08T20:45:58;100990.53;;;9.43;37.32
53715;BME280;39608;55.630;37.864;2023-05-08T20:51:01;101008.22;;;9.51;37.80
53715;BME280;39608;55.630;37.864;2023-05-08T20:56:04;100992.03;;;9.34;37.87
53715;BME280;39608;55.630;37.864;2023-05-08T21:01:06;101009.97;;;9.40;38.01
53715;BME280;39608;55.630;37.864;2023-05-08T21:06:12;101017.28;;;9.39;38.10
53715;BME280;39608;55.630;37.864;2023-05-08T21:11:14;101016.94;;;9.36;38.53
53715;BME280;39608;55.630;37.864;2023-05-08T21:16:16;101018.22;;;9.28;38.46
53715;BME280;39608;55.630;37.864;2023-05-08T21:21:19;101013.28;;;9.25;38.76
53715;BME280;39608;55.630;37.864;2023-05-08T21:26:21;101020.28;;;9.21;38.90
53715;BME280;39608;55.630;37.864;2023-05-08T21:31:24;101021.84;;;9.17;38.82
53715;BME280;39608;55.630;37.864;2023-05-08T21:36:29;101017.47;;;9.16;39.56
53715;BME280;39608;55.630;37.864;2023-05-08T21:41:34;101015.78;;;9.10;38.79
53715;BME280;39608;55.630;37.864;2023-05-08T21:46:36;101016.59;;;9.10;39.43
53715;BME280;39608;55.630;37.864;2023-05-08T21:51:40;101020.59;;;9.07;39.48
53715;BME280;39608;55.630;37.864;2023-05-08T21:56:42;101020.03;;;9.05;39.48
53715;BME280;39608;55.630;37.864;2023-05-08T22:01:44;101021.09;;;9.04;39.55
53715;BME280;39608;55.630;37.864;2023-05-08T22:06:47;101008.06;;;9.01;40.21
53715;BME280;39608;55.630;37.864;2023-05-08T22:11:49;101021.53;;;8.96;40.30
53715;BME280;39608;55.630;37.864;2023-05-08T22:16:51;101016.00;;;8.91;40.74
53715;BME280;39608;55.630;37.864;2023-05-08T22:21:55;101018.72;;;8.91;41.23
53715;BME280;39608;55.630;37.864;2023-05-08T22:26:57;101010.78;;;8.84;41.41
53715;BME280;39608;55.630;37.864;2023-05-08T22:31:59;101013.41;;;8.79;41.58
53715;BME280;39608;55.630;37.864;2023-05-08T22:37:03;101022.91;;;8.82;41.64
53715;BME280;39608;55.630;37.864;2023-05-08T22:42:05;101026.13;;;8.79;42.09
53715;BME280;39608;55.630;37.864;2023-05-08T22:47:08;101020.28;;;8.70;42.31
53715;BME280;39608;55.630;37.864;2023-05-08T22:52:11;101021.03;;;8.65;42.76
53715;BME280;39608;55.630;37.864;2023-05-08T22:57:13;101027.97;;;8.61;42.97
53715;BME280;39608;55.630;37.864;2023-05-08T23:02:15;101026.25;;;8.55;42.90
53715;BME280;39608;55.630;37.864;2023-05-08T23:07:19;101025.66;;;8.53;43.74
53715;BME280;39608;55.630;37.864;2023-05-08T23:12:21;101033.13;;;8.46;43.71
53715;BME280;39608;55.630;37.864;2023-05-08T23:17:23;101026.53;;;8.42;43.96
53715;BME280;39608;55.630;37.864;2023-05-08T23:22:27;101024.06;;;8.40;44.51
53715;BME280;39608;55.630;37.864;2023-05-08T23:27:29;101036.06;;;8.32;44.51
53715;BME280;39608;55.630;37.864;2023-05-08T23:32:31;101024.59;;;8.25;44.86
53715;BME280;39608;55.630;37.864;2023-05-08T23:37:34;101034.59;;;8.25;45.24
53715;BME280;39608;55.630;37.864;2023-05-08T23:42:36;101032.03;;;8.18;44.86
53715;BME280;39608;55.630;37.864;2023-05-08T23:47:39;101039.34;;;8.17;44.89
53715;BME280;39608;55.630;37.864;2023-05-08T23:52:42;101040.75;;;8.20;44.31
53715;BME280;39608;55.630;37.864;2023-05-08T23:57:45;101033.94;;;8.17;44.31
